Flight Track Log - Related Links

Times and Time Zones

All times are in EDT time to prevent confusion due to time zone crossing. See the AR128 flight status page for this flight to view local times or setup timezone preferences in your user account.

Time Position Orientation Groundspeed Altitude Reporting Facility
EDT Latitude Longitude Course Direction KTS MPH feet Rate Location/Type
Mon 05:39:46 PM 56.2167 -120.7833 151° Southeast 30 35 2,300  Level Edmonton Center
Mon 05:41:00 PM 56.1781 -120.6600 110° East  Level Estimated
Mon 05:41:46 PM 56.2000 -120.7667 110° East 20 23 2,300  Level Edmonton Center
Mon 05:43:00 PM 56.1927 -120.6134 110° East  Level FlightAware Approximate
Mon 05:43:46 PM 56.2667 -120.8667 110° East 140 161 4,500  Level Edmonton Center
Mon 05:45:00 PM 56.2279 -120.7434 110° East  Level Estimated
Mon 05:45:46 PM 56.2333 -120.7167 110° East 170 196 7,700  Level Edmonton Center
Mon 05:46:46 PM 56.2167 -120.6167 107° East 170 196 9,400 1,600 Climbing Edmonton Center
Mon 05:47:46 PM 56.2000 -120.5500 114° Southeast 180 207 10,900 1,433 Climbing Edmonton Center
Mon 05:49:00 PM 56.1490 -120.4345 123° Southeast  Level FlightAware Approximate
Mon 05:49:46 PM 56.1333 -120.3667 123° Southeast 200 230 13,700  Level Edmonton Center
Mon 05:50:46 PM 56.1000 -120.3000 132° Southeast 190 219 14,900 1,033 Climbing Edmonton Center
Mon 05:52:00 PM 56.0644 -120.1742 114° Southeast  Level FlightAware Approximate
Mon 05:52:46 PM 56.0667 -120.1167 114° Southeast 200 230 16,800  Level Edmonton Center
Mon 05:53:46 PM 56.0333 -120.0500 132° Southeast 210 242 18,100 900 Climbing Edmonton Center
Mon 05:55:00 PM 56.0012 -119.9214 114° Southeast  Level FlightAware Approximate
Mon 05:55:46 PM 55.9667 -119.8333 114° Southeast 220 253 19,500  Level Edmonton Center
Mon 05:56:46 PM 55.9500 -119.7333 107° East 210 242 20,300 650 Climbing Edmonton Center
Mon 05:57:46 PM 55.9167 -119.6667 132° Southeast 220 253 20,800 350 Climbing Edmonton Center
Mon 05:58:46 PM 55.8833 -119.5667 121° Southeast 230 265 21,000 100 Climbing Edmonton Center
Mon 05:59:46 PM 55.8500 -119.4500 117° Southeast 250 288 21,000  Level Edmonton Center
Mon 06:00:46 PM 55.8167 -119.3500 121° Southeast 260 299 21,000  Level Edmonton Center
Mon 06:02:00 PM 55.7847 -119.2221 114° Southeast  Level FlightAware Approximate
Mon 06:02:46 PM 55.7333 -119.1000 114° Southeast 270 311 21,000  Level Edmonton Center
Mon 06:04:00 PM 55.7106 -118.9636 119° Southeast  Level FlightAware Approximate
Mon 06:04:46 PM 55.6833 -118.8667 119° Southeast 260 299 21,000  Level Edmonton Center
Mon 06:06:00 PM 55.6452 -118.7446 119° Southeast  Level FlightAware Approximate
Mon 06:06:46 PM 55.6000 -118.6167 119° Southeast 260 299 20,800  Level Edmonton Center
Mon 06:08:00 PM 55.5619 -118.4949 119° Southeast  Level FlightAware Approximate
Mon 06:11:46 PM 55.4333 -118.0667 120° Southeast 260 299 21,000  Level Edmonton Center
Mon 06:12:46 PM 55.3833 -117.9667 131° Southeast 260 299 21,000  Level Edmonton Center
Mon 06:13:46 PM 55.3500 -117.8667 120° Southeast 260 299 21,000  Level Edmonton Center
Mon 06:14:46 PM 55.3167 -117.7333 114° Southeast 250 288 21,000  Level Edmonton Center
Mon 06:15:00 PM 55.3432 -117.8079 119° Southeast  Level FlightAware Approximate
Mon 06:15:46 PM 55.2833 -117.6333 120° Southeast 260 299 21,000  Level Edmonton Center
Mon 06:16:00 PM 55.3116 -117.7104 120° Southeast  Level FlightAware Approximate
Mon 06:16:46 PM 55.2500 -117.5333 120° Southeast 250 288 21,000  Level Edmonton Center
Mon 06:17:00 PM 55.2800 -117.6131 120° Southeast  Level FlightAware Approximate
Mon 06:18:00 PM 55.2114 -117.4130 119° Southeast  Level FlightAware Approximate
Mon 06:18:46 PM 55.1833 -117.3333 119° Southeast 250 288 21,000  Level Edmonton Center
Mon 06:19:46 PM 55.1500 -117.2000 114° Southeast 250 288 21,000  Level Edmonton Center
Mon 06:20:46 PM 55.1000 -117.1000 131° Southeast 250 288 21,000 50 Level Edmonton Center
Mon 06:21:46 PM 55.0833 -117.0000 106° East 250 288 21,100  Climbing Edmonton Center
Mon 06:22:46 PM 55.0333 -116.9000 131° Southeast 260 299 21,000 -50 Descending Edmonton Center
Mon 06:23:46 PM 55.0000 -116.7667 114° Southeast 260 299 21,000  Level Edmonton Center
Mon 06:25:00 PM 54.9589 -116.6497 121° Southeast  Level FlightAware Approximate
Mon 06:25:46 PM 54.9333 -116.5667 121° Southeast 260 299 21,000  Level Edmonton Center
Mon 06:26:46 PM 54.8833 -116.4667 131° Southeast 250 288 21,000  Level Edmonton Center
Mon 06:27:46 PM 54.8500 -116.3333 113° Southeast 260 299 21,000  Level Edmonton Center
Mon 06:28:46 PM 54.8167 -116.2333 120° Southeast 250 288 21,000  Level Edmonton Center
Mon 06:29:46 PM 54.7833 -116.1333 120° Southeast 250 288 21,000  Level Edmonton Center
Mon 06:30:46 PM 54.7500 -116.0333 120° Southeast 250 288 21,000  Level Edmonton Center
Mon 06:31:46 PM 54.7000 -115.9333 131° Southeast 260 299 21,000  Level Edmonton Center
Mon 06:32:46 PM 54.6667 -115.8000 113° Southeast 260 299 21,000  Level Edmonton Center
Mon 06:33:46 PM 54.6333 -115.7000 120° Southeast 250 288 21,000  Level Edmonton Center
Mon 06:35:00 PM 54.5940 -115.5851 121° Southeast  Level FlightAware Approximate
Mon 06:35:46 PM 54.5500 -115.5000 121° Southeast 250 288 21,000  Level Edmonton Center
Mon 06:37:00 PM 54.5151 -115.3811 117° Southeast  Level FlightAware Approximate
Mon 06:38:46 PM 54.4500 -115.2167 120° Southeast 250 288 21,000  Level Edmonton Center
Mon 06:39:46 PM 54.3833 -115.1167 139° Southeast 240 276 21,000  Level Edmonton Center
Mon 06:40:46 PM 54.3333 -115.0333 136° Southeast 240 276 21,000  Level Edmonton Center
Mon 06:41:46 PM 54.3000 -114.9333 120° Southeast 240 276 21,000 -50 Level Edmonton Center
Mon 06:42:46 PM 54.2500 -114.8333 131° Southeast 250 288 20,900 -400 Descending Edmonton Center
Mon 06:44:00 PM 54.2907 -114.7337 120° Southeast  Level FlightAware Approximate
Mon 06:44:00 PM 54.2500 -114.7010 90° East  Level FlightAware Approximate
Mon 06:44:46 PM 54.1500 -114.6667 90° East 270 311 19,800  Level Edmonton Center
Mon 06:46:00 PM 54.1583 -114.5354 84° East  Level FlightAware Approximate
Mon 06:46:46 PM 54.0500 -114.4667 84° East 280 322 17,300  Level Edmonton Center
Mon 06:47:46 PM 54.0000 -114.3667 130° Southeast 280 322 16,000 -1,300 Descending Edmonton Center
Mon 06:48:46 PM 53.9333 -114.2667 139° Southeast 280 322 14,700 -1,350 Descending Edmonton Center
Mon 06:49:46 PM 53.8833 -114.1667 130° Southeast 270 311 13,300 -1,300 Descending Edmonton Center
Mon 06:50:46 PM 53.8333 -114.0667 130° Southeast 260 299 12,100 -1,050 Descending Edmonton Center
Mon 06:51:46 PM 53.8000 -114.0000 130° Southeast 250 288 11,200 -1,000 Descending Edmonton Center
Mon 06:52:46 PM 53.7500 -113.9167 135° Southeast 240 276 10,100 -1,150 Descending Edmonton Center
Mon 06:53:46 PM 53.7000 -113.8167 130° Southeast 230 265 8,900 -1,300 Descending Edmonton Center
Mon 06:54:46 PM 53.6667 -113.7500 130° Southeast 210 242 7,500 -1,450 Descending Edmonton Center
Mon 06:55:46 PM 53.6333 -113.6833 130° Southeast 180 207 6,000 -1,433 Descending Edmonton Center
Mon 06:57:00 PM 53.5913 -113.5659 130° Southeast  Level FlightAware Approximate
Mon 06:57:46 PM 53.5833 -113.5833 130° Southeast 110 127 3,200  Level Edmonton Center
Mon 06:58:46 PM 53.5500 -113.5500 149° Southeast 100 115 2,500 -700 Descending Edmonton Center
Mon 07:00:00 PM 53.5667 -113.5167 130° Southeast  Level FlightAware Approximate
Mon 07:07:00 PM 53.5725 -113.5206 130° Southeast  Level Estimated
Mon 07:08:00 PM 53.5667 -113.5167 130° Southeast  Level FlightAware Approximate
Mon 07:09:00 PM 53.5725 -113.5206 130° Southeast  Level Estimated
Mon 07:10:00 PM 53.5667 -113.5167 130° Southeast  Level FlightAware Approximate
Mon 07:11:00 PM 53.5725 -113.5206 130° Southeast  Level Estimated
Mon 07:12:00 PM 53.5667 -113.5167 130° Southeast  Level FlightAware Approximate
Mon 07:13:00 PM 53.5725 -113.5206 130° Southeast  Level Estimated
Mon 07:14:00 PM 53.5667 -113.5167 130° Southeast  Level FlightAware Approximate

Login

Don't have an account? Register now (free) for customized features, flight alerts, and more!